Time;durP1;ratioP1;P1;durP2;ratioP2;P2;SDS_P1;SDS_P2;PMS_P1;PMS_P2;Temp;Humidity;BMP_temperature;BMP_pressure;BME280_temperature;BME280_humidity;BME280_pressure;Samples;Min_cycle;Max_cycle;Signal;HPM_P1;HPM_P2
2022/11/13 00:02:41;;;;;;;23.95;12.23;;;;;;;4.95;100.00;101632.63;6213311;28;20046;-74
2022/11/13 00:05:42;;;;;;;26.17;13.55;;;;;;;4.91;100.00;101639.56;6180652;28;20463;-74
2022/11/13 00:08:43;;;;;;;21.40;13.68;;;;;;;4.91;100.00;101634.41;6197006;28;20517;-75
2022/11/13 00:11:44;;;;;;;27.80;13.77;;;;;;;4.90;100.00;101640.47;6180664;28;20066;-73
2022/11/13 00:14:45;;;;;;;29.35;13.98;;;;;;;4.86;100.00;101638.78;6198185;28;20070;-75
2022/11/13 00:17:45;;;;;;;31.80;13.48;;;;;;;4.80;100.00;101629.34;6180360;28;20546;-75
2022/11/13 00:20:46;;;;;;;22.17;13.45;;;;;;;4.81;100.00;101625.03;6197870;28;20039;-75
2022/11/13 00:23:47;;;;;;;27.15;16.92;;;;;;;4.80;100.00;101620.75;6196282;28;20122;-75
2022/11/13 00:26:50;;;;;;;25.35;14.65;;;;;;;4.75;100.00;101619.94;6197123;28;20040;-74
2022/11/13 00:29:51;;;;;;;32.25;15.65;;;;;;;4.66;100.00;101617.47;6212442;28;20051;-75
2022/11/13 00:32:51;;;;;;;27.38;13.93;;;;;;;4.59;100.00;101614.06;6299043;28;20373;-75
2022/11/13 00:35:52;;;;;;;27.70;14.68;;;;;;;4.62;100.00;101612.31;6196360;28;20127;-73
2022/11/13 00:38:53;;;;;;;29.35;15.15;;;;;;;4.63;100.00;101614.06;6196170;28;20077;-74
2022/11/13 00:41:54;;;;;;;25.23;14.90;;;;;;;4.66;100.00;101614.88;6196153;28;20123;-74
2022/11/13 00:44:55;;;;;;;26.58;14.50;;;;;;;4.62;100.00;101604.56;6203912;28;20042;-73
2022/11/13 00:47:55;;;;;;;25.98;14.05;;;;;;;4.57;100.00;101608.94;6220316;28;20077;-75
2022/11/13 00:50:57;;;;;;;27.73;13.63;;;;;;;4.54;100.00;101611.56;6220398;28;20041;-75
2022/11/13 00:53:57;;;;;;;23.35;13.73;;;;;;;4.39;100.00;101604.81;6221726;28;20046;-74
2022/11/13 00:56:58;;;;;;;29.85;15.00;;;;;;;4.38;100.00;101597.09;6220357;28;20501;-74
2022/11/13 01:00:02;;;;;;;26.00;13.73;;;;;;;4.35;100.00;101605.72;6221241;28;20455;-73
2022/11/13 01:03:07;;;;;;;30.52;13.95;;;;;;;4.40;100.00;101597.91;6221488;28;20057;-73
2022/11/13 01:06:23;;;;;;;28.40;14.35;;;;;;;4.37;100.00;101597.97;6221335;28;20462;-74
2022/11/13 01:09:23;;;;;;;26.75;14.25;;;;;;;4.30;100.00;101594.56;6220192;28;20078;-73
2022/11/13 01:12:24;;;;;;;21.00;11.80;;;;;;;4.26;100.00;101592.03;6203671;28;20056;-74
2022/11/13 01:15:25;;;;;;;26.00;13.18;;;;;;;4.18;100.00;101580.06;6220049;28;20485;-75
2022/11/13 01:18:26;;;;;;;18.38;12.02;;;;;;;4.19;100.00;101586.94;6219791;28;20042;-75
2022/11/13 01:21:27;;;;;;;24.35;13.35;;;;;;;4.19;100.00;101586.09;6221067;28;20052;-74
2022/11/13 01:24:30;;;;;;;24.77;12.80;;;;;;;4.15;100.00;101594.75;6219866;28;20129;-74
2022/11/13 01:27:35;;;;;;;21.98;11.73;;;;;;;4.11;100.00;101590.47;6220509;28;20042;-73
2022/11/13 01:30:38;;;;;;;20.15;12.15;;;;;;;4.18;100.00;101598.16;6220008;28;20045;-73
2022/11/13 01:33:38;;;;;;;22.23;11.90;;;;;;;4.16;100.00;101589.56;6220679;28;20042;-75
2022/11/13 01:36:39;;;;;;;21.20;10.57;;;;;;;4.07;100.00;101586.22;6219641;28;20041;-73
2022/11/13 01:39:40;;;;;;;23.67;11.13;;;;;;;4.05;100.00;101586.22;6219361;28;20098;-73
2022/11/13 01:42:41;;;;;;;22.92;11.65;;;;;;;4.06;100.00;101580.19;6220731;28;20046;-73
2022/11/13 01:46:31;;;;;;;19.20;10.90;;;;;;;4.07;100.00;101581.03;6220702;28;20060;-73
2022/11/13 01:49:39;;;;;;;19.45;10.27;;;;;;;4.03;100.00;101577.63;6214137;28;20050;-73
2022/11/13 01:52:40;;;;;;;23.75;10.73;;;;;;;3.99;100.00;101581.09;6219326;28;20500;-73
2022/11/13 01:55:44;;;;;;;22.60;11.53;;;;;;;3.90;100.00;101570.88;6219264;28;20038;-73
2022/11/13 01:58:53;;;;;;;26.52;11.48;;;;;;;3.90;100.00;101576.03;6220253;28;20129;-73
2022/11/13 02:01:56;;;;;;;21.48;11.30;;;;;;;3.86;100.00;101574.34;6220360;28;20045;-75
2022/11/13 02:05:00;;;;;;;22.40;12.18;;;;;;;3.90;100.00;101566.56;6219063;28;20046;-75
2022/11/13 02:08:00;;;;;;;22.23;12.82;;;;;;;3.90;100.00;101568.28;6220042;28;20048;-74
2022/11/13 02:11:01;;;;;;;17.92;10.18;;;;;;;3.91;100.00;101572.56;6220285;28;20393;-73
2022/11/13 02:14:03;;;;;;;18.13;10.90;;;;;;;3.87;100.00;101578.63;6218867;28;20065;-73
2022/11/13 02:17:07;;;;;;;20.45;10.70;;;;;;;3.83;100.00;101572.66;6218747;28;20058;-73
2022/11/13 02:20:08;;;;;;;18.75;11.10;;;;;;;3.80;100.00;101573.53;6218588;28;20106;-73
2022/11/13 02:23:35;;;;;;;20.70;10.13;;;;;;;3.73;100.00;101571.03;6219960;28;20046;-72
2022/11/13 02:26:36;;;;;;;18.33;10.02;;;;;;;3.82;100.00;101578.69;6202254;28;20472;-74
2022/11/13 02:29:37;;;;;;;12.85;9.05;;;;;;;3.82;100.00;101579.53;6219353;28;20053;-75
2022/11/13 02:32:45;;;;;;;25.48;12.65;;;;;;;3.84;100.00;101579.53;6217931;28;20045;-74
2022/11/13 02:35:45;;;;;;;16.63;9.75;;;;;;;3.74;100.00;101580.47;6219591;28;20054;-76
2022/11/13 02:38:47;;;;;;;17.58;10.77;;;;;;;3.77;100.00;101585.63;6219591;28;20068;-75
2022/11/13 02:41:47;;;;;;;18.00;10.65;;;;;;;3.65;100.00;101572.81;6219522;28;20054;-75
2022/11/13 02:44:48;;;;;;;20.27;10.45;;;;;;;3.58;100.00;101577.16;6219625;28;20046;-74
2022/11/13 02:47:49;;;;;;;17.63;10.70;;;;;;;3.57;100.00;101568.56;6219435;28;20591;-74
2022/11/13 02:50:50;;;;;;;24.38;11.10;;;;;;;3.60;100.00;101568.53;6219179;28;20046;-74
2022/11/13 02:53:51;;;;;;;20.15;10.85;;;;;;;3.56;100.00;101568.56;6218125;28;20060;-74
2022/11/13 02:56:51;;;;;;;17.98;10.07;;;;;;;3.58;100.00;101572.88;6218272;28;20050;-74
2022/11/13 02:59:52;;;;;;;16.20;9.43;;;;;;;3.56;100.00;101576.31;6219925;28;20524;-74
2022/11/13 03:02:54;;;;;;;13.48;9.43;;;;;;;3.56;100.00;101572.03;6222327;28;20136;-75
2022/11/13 03:05:55;;;;;;;19.63;9.95;;;;;;;3.56;100.00;101572.03;6223624;28;20047;-74
2022/11/13 03:09:00;;;;;;;20.10;9.18;;;;;;;3.57;100.00;101572.88;6206012;28;20081;-74
2022/11/13 03:12:01;;;;;;;16.30;10.25;;;;;;;3.50;100.00;101576.34;6222523;28;20074;-74
2022/11/13 03:15:03;;;;;;;23.48;10.57;;;;;;;3.46;100.00;101570.38;6205987;28;20054;-75
2022/11/13 03:18:04;;;;;;;19.75;11.07;;;;;;;3.42;100.00;101581.59;6222245;28;20451;-75
2022/11/13 03:21:10;;;;;;;14.05;9.35;;;;;;;3.38;100.00;101564.41;6222091;28;20057;-74
2022/11/13 03:24:11;;;;;;;20.40;9.25;;;;;;;3.42;100.00;101579.84;6222149;28;20125;-74
2022/11/13 03:27:14;;;;;;;17.40;9.80;;;;;;;3.37;100.00;101581.59;6223452;28;20390;-74
2022/11/13 03:30:16;;;;;;;23.70;10.85;;;;;;;3.37;100.00;101580.75;6223356;28;20073;-74
2022/11/13 03:33:17;;;;;;;32.35;12.50;;;;;;;3.35;100.00;101575.59;6221863;28;20474;-74
2022/11/13 03:36:17;;;;;;;19.23;12.68;;;;;;;3.29;100.00;101579.94;6205445;28;20539;-74
2022/11/13 03:39:21;;;;;;;18.25;10.30;;;;;;;3.22;100.00;101579.13;6222795;28;20043;-74
2022/11/13 03:42:22;;;;;;;15.05;8.88;;;;;;;3.24;100.00;101574.81;6221712;28;20496;-74
2022/11/13 03:45:22;;;;;;;14.27;9.18;;;;;;;3.21;100.00;101567.97;6222710;28;20046;-74
2022/11/13 03:48:23;;;;;;;14.20;9.80;;;;;;;3.18;100.00;101565.38;6222732;28;20062;-74
2022/11/13 03:51:24;;;;;;;13.75;8.30;;;;;;;3.17;100.00;101566.28;6222744;28;20098;-74
2022/11/13 03:54:24;;;;;;;16.25;9.05;;;;;;;3.09;100.00;101565.47;6222668;28;20057;-74
2022/11/13 03:57:28;;;;;;;12.80;8.15;;;;;;;3.08;100.00;101574.03;6222733;28;20042;-74
2022/11/13 04:00:29;;;;;;;10.75;7.72;;;;;;;3.09;100.00;101575.78;6222651;28;20461;-74
2022/11/13 04:03:29;;;;;;;12.07;7.25;;;;;;;3.07;100.00;101564.59;6221215;28;20077;-75
2022/11/13 04:06:31;;;;;;;9.90;7.45;;;;;;;3.05;100.00;101573.19;6221237;28;20465;-74
2022/11/13 04:09:33;;;;;;;13.05;7.63;;;;;;;2.99;100.00;101568.94;6222362;28;20053;-74
2022/11/13 04:12:35;;;;;;;11.88;7.70;;;;;;;3.01;100.00;101562.91;6222034;28;20042;-74
2022/11/13 04:15:36;;;;;;;9.77;6.43;;;;;;;3.03;100.00;101563.75;6221030;28;20049;-74
2022/11/13 04:18:37;;;;;;;10.32;6.93;;;;;;;3.03;100.00;101571.50;6204652;28;20046;-74
2022/11/13 04:21:41;;;;;;;13.10;6.22;;;;;;;2.88;100.00;101566.41;6221574;28;20077;-74
2022/11/13 04:24:42;;;;;;;8.32;6.18;;;;;;;2.95;100.00;101573.25;6221403;28;20046;-75
2022/11/13 04:27:42;;;;;;;11.70;5.60;;;;;;;2.96;100.00;101561.22;6222027;28;20048;-74
2022/11/13 04:30:45;;;;;;;15.95;6.40;;;;;;;2.96;100.00;101559.50;6221011;28;20081;-75
2022/11/13 04:33:46;;;;;;;11.68;6.50;;;;;;;2.90;100.00;101556.94;6220778;28;20046;-74
2022/11/13 04:36:47;;;;;;;11.57;6.32;;;;;;;2.87;100.00;101550.97;6220968;28;20052;-75
2022/11/13 04:39:47;;;;;;;10.77;6.30;;;;;;;2.83;100.00;101540.66;6220970;28;20054;-74
2022/11/13 04:42:48;;;;;;;14.25;6.60;;;;;;;2.82;100.00;101545.81;6221717;28;20384;-75
2022/11/13 04:45:51;;;;;;;12.90;6.75;;;;;;;2.81;100.00;101542.38;6221522;28;20046;-74
2022/11/13 04:48:52;;;;;;;12.07;5.95;;;;;;;2.77;100.00;101551.00;6221739;28;20054;-75
2022/11/13 04:51:52;;;;;;;11.55;6.60;;;;;;;2.78;100.00;101541.53;6220481;28;20141;-74
2022/11/13 04:54:54;;;;;;;10.07;5.90;;;;;;;2.82;100.00;101541.53;6221532;28;20056;-75
2022/11/13 04:57:55;;;;;;;10.70;6.25;;;;;;;2.79;100.00;101544.13;6221582;28;20046;-74
2022/11/13 05:00:58;;;;;;;15.07;7.40;;;;;;;2.80;100.00;101540.69;6220581;28;20052;-75
2022/11/13 05:03:59;;;;;;;13.05;7.32;;;;;;;2.85;100.00;101542.38;6220095;28;20477;-74
2022/11/13 05:07:01;;;;;;;11.85;5.97;;;;;;;2.83;100.00;101545.81;6221495;28;20099;-74
2022/11/13 05:10:03;;;;;;;12.98;6.95;;;;;;;2.74;100.00;101550.16;6220194;28;20050;-74
2022/11/13 05:13:06;;;;;;;8.63;5.57;;;;;;;2.68;100.00;101547.59;6220052;28;20046;-74
2022/11/13 05:16:09;;;;;;;11.60;6.47;;;;;;;2.75;100.00;101555.31;6220205;28;20195;-74
2022/11/13 05:19:09;;;;;;;13.65;6.45;;;;;;;2.76;100.00;101541.56;6221091;28;20132;-74
2022/11/13 05:22:10;;;;;;;19.60;6.32;;;;;;;2.69;100.00;101529.56;6220491;28;20480;-74
2022/11/13 05:25:11;;;;;;;13.38;7.40;;;;;;;2.61;100.00;101544.19;6219618;28;20053;-75
2022/11/13 05:28:11;;;;;;;10.05;6.15;;;;;;;2.62;100.00;101544.19;6220979;28;20427;-74
2022/11/13 05:31:15;;;;;;;12.35;6.53;;;;;;;2.57;100.00;101547.66;6219719;28;20057;-74
2022/11/13 05:34:17;;;;;;;9.25;5.43;;;;;;;2.53;100.00;101551.09;6220990;28;20462;-74
2022/11/13 05:37:17;;;;;;;9.27;5.25;;;;;;;2.51;100.00;101553.72;6221012;28;20046;-74
2022/11/13 05:40:18;;;;;;;12.32;5.65;;;;;;;2.48;100.00;101552.84;6220686;28;20095;-74
2022/11/13 05:43:19;;;;;;;13.40;5.28;;;;;;;2.37;100.00;101555.47;6220746;28;20430;-74
2022/11/13 05:46:22;;;;;;;8.75;4.93;;;;;;;2.42;100.00;101556.31;6219431;28;20124;-74
2022/11/13 05:49:23;;;;;;;9.00;5.30;;;;;;;2.47;100.00;101557.16;6219281;28;20054;-74
2022/11/13 05:52:24;;;;;;;8.02;5.20;;;;;;;2.46;100.00;101550.28;6202926;28;20533;-74
2022/11/13 05:55:24;;;;;;;10.93;5.78;;;;;;;2.41;100.00;101560.59;6219500;28;20044;-74
2022/11/13 05:58:26;;;;;;;9.93;6.03;;;;;;;2.53;100.00;101553.69;6220250;28;20045;-75
2022/11/13 06:01:36;;;;;;;10.95;5.45;;;;;;;2.54;100.00;101558.84;6220334;28;20076;-74
2022/11/13 06:04:36;;;;;;;9.95;6.28;;;;;;;2.56;100.00;101559.69;6219197;28;20100;-74
2022/11/13 06:07:37;;;;;;;10.10;5.85;;;;;;;2.52;100.00;101558.00;6219091;28;20493;-74
2022/11/13 06:10:40;;;;;;;6.78;4.43;;;;;;;2.61;100.00;101559.66;6218918;28;20046;-74
2022/11/13 06:13:44;;;;;;;8.25;5.85;;;;;;;2.59;100.00;101561.38;6218906;28;20054;-74
2022/11/13 06:16:47;;;;;;;7.75;5.20;;;;;;;2.74;100.00;101560.47;6218437;28;20045;-74
2022/11/13 06:19:48;;;;;;;12.90;5.80;;;;;;;2.79;100.00;101563.88;6218157;28;20041;-74
2022/11/13 06:22:48;;;;;;;7.38;5.47;;;;;;;2.80;100.00;101556.16;6219739;28;20090;-74
2022/11/13 06:25:49;;;;;;;14.70;6.43;;;;;;;2.87;100.00;101550.97;6220217;28;20042;-75
2022/11/13 06:28:50;;;;;;;13.07;5.55;;;;;;;2.90;100.00;101549.22;6219882;28;20053;-74
2022/11/13 06:31:52;;;;;;;8.82;5.53;;;;;;;2.90;100.00;101548.34;6219826;28;20046;-74
2022/11/13 06:34:52;;;;;;;13.00;7.75;;;;;;;2.99;100.00;101558.63;6218154;28;20554;-72
2022/11/13 06:37:54;;;;;;;20.73;8.65;;;;;;;3.03;100.00;101558.59;6219703;28;20050;-72
2022/11/13 06:40:56;;;;;;;11.27;6.55;;;;;;;3.04;100.00;101551.72;6218495;28;20041;-73
2022/11/13 06:43:58;;;;;;;9.93;7.53;;;;;;;3.05;100.00;101552.56;6219493;28;20540;-72
2022/11/13 06:47:01;;;;;;;12.88;8.38;;;;;;;3.11;100.00;101549.94;6218375;28;20136;-72
2022/11/13 06:50:01;;;;;;;12.25;6.28;;;;;;;3.20;100.00;101547.31;6201926;28;20054;-73
2022/11/13 06:53:05;;;;;;;14.23;7.60;;;;;;;3.36;100.00;101554.09;6201903;28;20077;-73
2022/11/13 06:56:06;;;;;;;15.32;7.13;;;;;;;3.52;100.00;101552.25;6219414;28;20469;-72
2022/11/13 06:59:08;;;;;;;13.32;6.88;;;;;;;3.65;100.00;101555.59;6212652;28;20054;-72
2022/11/13 07:02:10;;;;;;;12.18;7.28;;;;;;;3.82;100.00;101556.28;6213437;28;20050;-73
2022/11/13 07:05:11;;;;;;;13.25;6.68;;;;;;;3.94;100.00;101550.16;6195582;28;20092;-73
2022/11/13 07:08:12;;;;;;;9.82;6.18;;;;;;;4.07;100.00;101560.38;6193047;28;20046;-73
2022/11/13 07:11:17;;;;;;;13.27;7.50;;;;;;;4.22;100.00;101558.50;6192922;28;20521;-72
2022/11/13 07:14:17;;;;;;;15.73;8.73;;;;;;;4.40;100.00;101561.75;6277924;28;20065;-72
2022/11/13 07:17:18;;;;;;;12.35;8.38;;;;;;;4.55;100.00;101556.41;6176732;28;20047;-73
2022/11/13 07:20:19;;;;;;;14.45;9.18;;;;;;;4.71;100.00;101551.03;6196311;28;20065;-73
2022/11/13 07:23:19;;;;;;;27.33;10.00;;;;;;;4.94;100.00;101559.34;6203308;28;20045;-73
2022/11/13 07:26:21;;;;;;;17.00;10.18;;;;;;;5.10;100.00;101554.81;6217042;28;20550;-73
2022/11/13 07:29:21;;;;;;;20.90;10.82;;;;;;;5.24;100.00;101555.47;6216906;28;20103;-73
2022/11/13 07:32:22;;;;;;;17.52;10.77;;;;;;;5.33;100.00;101557.03;6216962;28;20063;-72
2022/11/13 07:35:23;;;;;;;19.85;10.48;;;;;;;5.52;100.00;101554.16;6200399;28;20061;-73
2022/11/13 07:38:23;;;;;;;16.60;10.35;;;;;;;5.68;100.00;101555.63;6217979;28;20042;-74
2022/11/13 07:41:24;;;;;;;17.30;10.45;;;;;;;5.91;100.00;101559.56;6216675;28;20064;-72
2022/11/13 07:44:25;;;;;;;19.23;11.73;;;;;;;6.12;100.00;101558.38;6216585;28;20046;-72
2022/11/13 07:47:25;;;;;;;24.20;12.52;;;;;;;6.38;100.00;101555.25;6203125;28;20492;-73
2022/11/13 07:50:29;;;;;;;21.95;12.98;;;;;;;6.55;100.00;101557.53;6220496;28;20077;-72
2022/11/13 07:53:30;;;;;;;23.38;12.23;;;;;;;6.78;100.00;101557.91;6204335;28;20175;-72
2022/11/13 07:56:31;;;;;;;18.35;10.70;;;;;;;6.98;100.00;101556.59;6221841;28;20042;-72
2022/11/13 07:59:32;;;;;;;27.10;14.20;;;;;;;7.17;100.00;101549.28;6220547;28;20042;-72
2022/11/13 08:02:32;;;;;;;22.85;13.68;;;;;;;7.38;100.00;101540.13;6221786;28;20038;-72
2022/11/13 08:05:34;;;;;;;26.52;15.13;;;;;;;7.61;100.00;101545.59;6220514;28;20526;-72
2022/11/13 08:08:34;;;;;;;24.58;15.30;;;;;;;7.85;100.00;101548.50;6221601;28;20043;-72
2022/11/13 08:11:37;;;;;;;25.95;12.27;;;;;;;8.10;100.00;101550.44;6221601;28;20114;-72
2022/11/13 08:14:38;;;;;;;23.23;14.80;;;;;;;8.34;100.00;101551.50;6220322;28;20042;-72
2022/11/13 08:17:41;;;;;;;20.42;12.57;;;;;;;8.53;100.00;101552.75;6221466;28;20513;-72
2022/11/13 08:20:42;;;;;;;39.45;20.02;;;;;;;8.72;100.00;101540.03;6221397;28;20038;-72
2022/11/13 08:23:42;;;;;;;42.70;18.83;;;;;;;8.98;100.00;101538.41;6220035;28;20045;-72
2022/11/13 08:26:43;;;;;;;23.63;12.18;;;;;;;9.21;100.00;101546.34;6221390;28;20042;-72
2022/11/13 08:29:45;;;;;;;14.45;9.75;;;;;;;9.51;100.00;101545.41;6221315;28;20050;-73
2022/11/13 08:32:49;;;;;;;17.75;9.00;;;;;;;9.69;100.00;101548.25;6220032;28;20073;-73
2022/11/13 08:35:58;;;;;;;17.88;11.20;;;;;;;10.00;100.00;101539.38;6323091;27;20493;-73
2022/11/13 08:38:59;;;;;;;15.25;8.85;;;;;;;10.25;100.00;101546.34;6289049;28;20053;-73
2022/11/13 08:42:01;;;;;;;16.80;10.90;;;;;;;10.49;100.00;101552.47;6221155;28;20053;-74
2022/11/13 08:45:03;;;;;;;17.83;8.93;;;;;;;10.60;100.00;101558.13;6219750;28;20042;-74
2022/11/13 08:48:04;;;;;;;13.75;8.38;;;;;;;10.77;100.00;101560.13;6214755;28;20091;-74
2022/11/13 08:51:05;;;;;;;19.45;10.15;;;;;;;10.97;100.00;101554.13;6202411;28;20149;-74
2022/11/13 08:54:05;;;;;;;35.58;20.13;;;;;;;11.03;100.00;101555.66;6196462;28;20047;-73
2022/11/13 08:57:06;;;;;;;24.75;11.80;;;;;;;10.96;100.00;101557.66;6195350;28;20049;-74
2022/11/13 09:00:08;;;;;;;26.58;11.68;;;;;;;11.15;100.00;101559.56;6195274;28;20118;-74
2022/11/13 09:03:11;;;;;;;22.27;9.77;;;;;;;11.16;100.00;101548.19;6195161;28;20507;-74
2022/11/13 09:06:11;;;;;;;16.42;9.18;;;;;;;11.24;100.00;101562.66;6195139;28;20482;-74
2022/11/13 09:09:12;;;;;;;15.63;8.90;;;;;;;11.25;100.00;101555.66;6196242;28;20052;-73
2022/11/13 09:12:15;;;;;;;19.25;9.38;;;;;;;11.38;100.00;101548.19;6195090;28;20494;-74
2022/11/13 09:15:16;;;;;;;20.13;11.10;;;;;;;11.64;100.00;101557.59;6196034;28;20490;-74
2022/11/13 09:18:16;;;;;;;19.60;10.85;;;;;;;11.62;100.00;101559.41;6297185;28;20058;-74
2022/11/13 09:21:19;;;;;;;20.55;11.10;;;;;;;11.85;100.00;101554.03;6196102;28;20409;-74
2022/11/13 09:24:21;;;;;;;18.23;10.30;;;;;;;11.88;100.00;101556.59;6194601;28;20436;-74
2022/11/13 09:27:21;;;;;;;16.27;9.95;;;;;;;11.94;99.69;101549.38;6201714;28;20042;-73
2022/11/13 09:30:23;;;;;;;17.33;9.98;;;;;;;12.20;97.81;101556.09;6178507;28;20084;-74
2022/11/13 09:33:24;;;;;;;20.40;11.43;;;;;;;12.34;99.05;101545.88;6213838;28;20041;-73
2022/11/13 09:36:24;;;;;;;15.23;10.05;;;;;;;12.46;98.57;101547.09;6201582;28;20058;-74
2022/11/13 09:39:25;;;;;;;27.58;16.67;;;;;;;12.46;98.10;101534.84;6194518;28;20050;-74
2022/11/13 09:42:28;;;;;;;21.80;11.18;;;;;;;12.56;97.34;101534.41;6194141;28;20073;-74
2022/11/13 09:45:31;;;;;;;20.88;10.75;;;;;;;12.72;96.58;101524.94;6219149;28;20049;-74
2022/11/13 09:49:07;;;;;;;27.20;11.10;;;;;;;12.86;97.19;101525.13;6213364;28;20377;-74
2022/11/13 09:52:16;;;;;;;18.15;9.00;;;;;;;13.02;97.50;101520.03;6220811;28;20054;-74
2022/11/13 09:55:20;;;;;;;17.45;8.65;;;;;;;13.04;94.33;101514.72;6217625;28;20178;-74
2022/11/13 09:58:30;;;;;;;20.58;10.15;;;;;;;13.17;97.72;101514.97;6215015;28;20046;-74
2022/11/13 10:01:52;;;;;;;14.35;8.85;;;;;;;13.44;94.76;101507.53;6218629;28;20402;-74
2022/11/13 10:05:22;;;;;;;22.08;9.02;;;;;;;13.26;94.21;101504.03;6218708;28;20436;-74
2022/11/13 10:08:46;;;;;;;16.23;8.38;;;;;;;13.52;93.01;101497.53;6246295;28;20050;-75
2022/11/13 10:11:51;;;;;;;17.15;10.05;;;;;;;13.56;97.59;101490.34;6201327;28;20144;-74
2022/11/13 10:14:55;;;;;;;19.90;11.57;;;;;;;13.57;97.66;101482.41;6217647;28;20618;-74
2022/11/13 10:18:04;;;;;;;21.20;12.68;;;;;;;13.64;96.32;101486.41;6216176;28;20043;-74
2022/11/13 10:21:32;;;;;;;25.80;13.02;;;;;;;13.96;95.61;101478.66;6212856;28;20153;-73
2022/11/13 10:24:39;;;;;;;24.13;13.73;;;;;;;14.03;93.80;101474.78;6214213;28;20552;-73
2022/11/13 10:27:43;;;;;;;26.05;13.88;;;;;;;13.88;94.91;101467.72;6199818;28;20049;-73
2022/11/13 10:30:45;;;;;;;21.45;13.02;;;;;;;13.83;92.76;101473.19;6193476;28;20051;-74
2022/11/13 10:33:46;;;;;;;27.20;13.23;;;;;;;13.96;93.41;101468.16;6216662;28;20046;-74
2022/11/13 10:37:21;;;;;;;18.30;10.48;;;;;;;14.12;94.02;101462.94;6190857;28;20403;-75
2022/11/13 10:40:26;;;;;;;17.55;10.05;;;;;;;14.10;92.16;101456.91;6192846;28;20495;-74
2022/11/13 10:43:27;;;;;;;16.98;9.95;;;;;;;14.21;91.37;101462.47;6193978;28;20484;-74
2022/11/13 10:46:31;;;;;;;17.55;10.13;;;;;;;14.13;89.33;101446.28;6192830;28;20042;-74
2022/11/13 10:49:35;;;;;;;17.92;9.18;;;;;;;14.05;89.70;101448.47;6294446;28;20077;-74
2022/11/13 10:52:45;;;;;;;21.48;10.40;;;;;;;14.17;91.20;101439.94;6176574;28;20129;-74
2022/11/13 10:55:51;;;;;;;23.13;11.82;;;;;;;14.31;93.21;101428.69;6176735;28;20081;-74
2022/11/13 10:59:12;;;;;;;23.98;11.65;;;;;;;14.39;91.99;101434.38;6194275;28;20042;-74
2022/11/13 11:02:23;;;;;;;18.05;11.27;;;;;;;14.43;92.13;101432.38;6296843;28;20054;-74
2022/11/13 11:05:25;;;;;;;15.70;10.25;;;;;;;14.17;92.44;101429.44;6188323;28;20395;-74
2022/11/13 11:08:34;;;;;;;19.42;11.18;;;;;;;14.16;93.00;101424.25;6216912;28;20069;-73
2022/11/13 11:14:57;;;;;;;19.23;11.38;;;;;;;14.43;91.41;101422.75;6217828;28;20451;-73
2022/11/13 11:18:05;;;;;;;18.80;11.13;;;;;;;14.61;92.01;101409.53;6216666;28;20186;-74
2022/11/13 11:21:15;;;;;;;17.55;10.60;;;;;;;14.64;89.88;101404.09;6218635;28;20092;-75
2022/11/13 11:24:22;;;;;;;18.02;8.82;;;;;;;14.77;83.39;101407.75;6222359;28;20504;-74
2022/11/13 11:27:31;;;;;;;18.25;9.60;;;;;;;14.99;82.33;101412.63;6220976;28;20141;-74
2022/11/13 11:30:48;;;;;;;20.43;11.07;;;;;;;14.81;86.34;101411.06;6220998;28;20058;-73
2022/11/13 11:34:38;;;;;;;17.63;10.73;;;;;;;14.79;87.81;101400.63;6221158;28;20405;-73
2022/11/13 11:37:49;;;;;;;14.48;9.23;;;;;;;14.60;86.42;101402.59;6223354;28;20062;-73
2022/11/13 11:41:14;;;;;;;15.27;9.43;;;;;;;14.58;88.20;101392.19;6220973;28;20073;-72
2022/11/13 11:44:32;;;;;;;15.68;8.75;;;;;;;14.80;86.43;101394.41;6220853;28;20042;-72
2022/11/13 11:47:33;;;;;;;16.05;10.18;;;;;;;14.70;85.50;101380.13;6213192;28;20473;-73
2022/11/13 11:50:42;;;;;;;22.65;9.43;;;;;;;14.63;86.58;101379.63;6187276;28;20087;-73
2022/11/13 11:54:01;;;;;;;16.50;10.35;;;;;;;14.63;89.00;101368.28;6201196;28;20038;-72
2022/11/13 11:57:38;;;;;;;17.48;10.43;;;;;;;14.64;87.47;101368.19;6205252;28;20117;-72
2022/11/13 12:00:49;;;;;;;19.92;10.70;;;;;;;14.68;86.22;101361.84;6221886;28;20080;-73
2022/11/13 12:04:04;;;;;;;21.23;10.00;;;;;;;14.53;86.39;101362.66;6208287;28;20046;-73
2022/11/13 12:07:39;;;;;;;18.63;10.52;;;;;;;14.54;88.50;101355.63;6197740;28;20042;-72
2022/11/13 12:11:01;;;;;;;18.85;10.73;;;;;;;14.64;86.64;101351.56;6197331;28;20452;-72
2022/11/13 12:14:13;;;;;;;21.88;11.25;;;;;;;14.77;87.03;101357.81;6205695;28;20100;-72
2022/11/13 12:17:17;;;;;;;19.50;10.93;;;;;;;14.47;87.79;101349.88;6188213;28;20060;-72
2022/11/13 12:20:30;;;;;;;18.60;10.52;;;;;;;14.63;87.34;101353.34;6196037;28;20296;-73
2022/11/13 12:23:54;;;;;;;23.65;11.05;;;;;;;14.76;87.54;101358.75;6297417;27;20085;-73
2022/11/13 12:27:36;;;;;;;24.23;12.57;;;;;;;14.65;88.86;101350.66;6204438;28;20146;-73
2022/11/13 12:31:28;;;;;;;21.33;11.52;;;;;;;14.61;87.62;101344.72;6197996;28;20050;-74
2022/11/13 12:34:47;;;;;;;23.95;11.27;;;;;;;14.63;89.19;101345.47;6173614;28;20074;-75
2022/11/13 12:38:06;;;;;;;22.15;11.82;;;;;;;14.41;91.44;101339.72;6195993;28;20077;-75
2022/11/13 12:41:17;;;;;;;22.75;12.07;;;;;;;14.22;91.79;101329.41;6195734;28;20065;-74
2022/11/13 12:44:26;;;;;;;23.75;11.65;;;;;;;14.06;92.09;101325.03;6203909;28;20046;-74
2022/11/13 12:47:27;;;;;;;19.20;11.35;;;;;;;14.01;92.30;101320.97;6195393;28;20054;-74
2022/11/13 12:50:30;;;;;;;20.33;11.82;;;;;;;13.87;93.04;101330.44;6291512;28;20133;-75
2022/11/13 12:53:53;;;;;;;18.73;11.13;;;;;;;14.03;94.25;101327.81;6196169;28;20069;-75
2022/11/13 12:57:17;;;;;;;25.35;13.23;;;;;;;14.08;92.51;101327.56;6196353;28;20454;-74
2022/11/13 13:00:25;;;;;;;22.80;12.95;;;;;;;13.97;92.92;101309.78;6198157;28;20055;-74
2022/11/13 13:03:50;;;;;;;343.25;121.20;;;;;;;14.03;92.06;101319.09;6180022;28;20046;-74
2022/11/13 13:07:12;;;;;;;83.55;41.13;;;;;;;13.95;93.06;101323.94;6202911;28;20077;-74
2022/11/13 13:10:31;;;;;;;28.60;16.42;;;;;;;13.86;92.85;101314.78;6219380;28;20159;-75
2022/11/13 13:13:54;;;;;;;19.63;12.20;;;;;;;13.69;95.88;101311.31;6221300;28;20460;-74
2022/11/13 13:17:13;;;;;;;25.70;14.32;;;;;;;13.68;95.92;101317.47;6195439;28;20050;-72
2022/11/13 13:20:13;;;;;;;23.95;12.88;;;;;;;13.58;96.83;101315.44;6195169;28;20046;-72
2022/11/13 13:23:28;;;;;;;30.38;13.70;;;;;;;13.55;97.86;101318.19;6194906;28;20108;-74
2022/11/13 13:26:43;;;;;;;21.67;12.43;;;;;;;13.58;96.43;101307.56;6198180;28;20054;-74
2022/11/13 13:29:44;;;;;;;28.90;16.38;;;;;;;13.60;98.19;101303.09;6218571;28;20114;-73
2022/11/13 13:33:05;;;;;;;96.30;39.90;;;;;;;13.45;98.28;101302.13;6219025;28;20042;-73
2022/11/13 13:36:18;;;;;;;30.60;17.25;;;;;;;13.40;99.17;101304.13;6218854;28;20152;-73
2022/11/13 13:39:31;;;;;;;27.52;13.75;;;;;;;13.29;97.83;101302.09;6218810;28;20439;-73
2022/11/13 13:42:41;;;;;;;23.45;13.32;;;;;;;13.35;97.96;101299.16;6218555;28;20041;-73
2022/11/13 13:45:44;;;;;;;23.75;13.32;;;;;;;13.22;99.33;101298.91;6219111;28;20038;-72
2022/11/13 13:48:48;;;;;;;23.13;14.07;;;;;;;13.22;100.00;101295.41;6218203;28;20053;-73
2022/11/13 13:51:53;;;;;;;28.83;13.48;;;;;;;13.04;100.00;101300.72;6219854;28;20046;-73
2022/11/13 13:54:55;;;;;;;21.73;13.05;;;;;;;12.85;100.00;101295.56;6202087;28;20077;-73
2022/11/13 13:57:56;;;;;;;19.55;12.50;;;;;;;12.63;100.00;101293.19;6218261;28;20058;-73
2022/11/13 14:01:00;;;;;;;22.70;13.30;;;;;;;12.63;100.00;101290.56;6218198;28;20045;-73
2022/11/13 14:04:23;;;;;;;24.73;13.30;;;;;;;12.45;100.00;101287.06;6201966;28;20053;-73
2022/11/13 14:07:28;;;;;;;30.98;14.93;;;;;;;12.29;100.00;101289.63;6218160;28;20042;-72
2022/11/13 14:10:29;;;;;;;28.30;15.18;;;;;;;12.32;100.00;101279.91;6218135;28;20046;-73